sensor_id;sensor_type;location;lat;lon;timestamp;P1;durP1;ratioP1;P2;durP2;ratioP2
48207;SDS011;33997;53.278;9.708;2024-02-16T00:01:00;2.03;;;1.27;;
48207;SDS011;33997;53.278;9.708;2024-02-16T00:03:27;1.38;;;0.93;;
48207;SDS011;33997;53.278;9.708;2024-02-16T00:05:52;2.92;;;1.27;;
48207;SDS011;33997;53.278;9.708;2024-02-16T00:08:19;2.95;;;1.10;;
48207;SDS011;33997;53.278;9.708;2024-02-16T00:10:45;2.20;;;1.42;;
48207;SDS011;33997;53.278;9.708;2024-02-16T00:13:11;2.65;;;1.30;;
48207;SDS011;33997;53.278;9.708;2024-02-16T00:15:37;2.30;;;1.27;;
48207;SDS011;33997;53.278;9.708;2024-02-16T00:18:03;2.25;;;1.30;;
48207;SDS011;33997;53.278;9.708;2024-02-16T00:20:29;2.97;;;1.42;;
48207;SDS011;33997;53.278;9.708;2024-02-16T00:22:56;4.40;;;1.27;;
48207;SDS011;33997;53.278;9.708;2024-02-16T00:25:22;2.67;;;1.30;;
48207;SDS011;33997;53.278;9.708;2024-02-16T00:27:47;1.52;;;1.20;;
48207;SDS011;33997;53.278;9.708;2024-02-16T00:30:13;5.47;;;1.33;;
48207;SDS011;33997;53.278;9.708;2024-02-16T00:32:40;1.92;;;0.98;;
48207;SDS011;33997;53.278;9.708;2024-02-16T00:35:06;1.88;;;1.00;;
48207;SDS011;33997;53.278;9.708;2024-02-16T00:37:31;2.85;;;1.25;;
48207;SDS011;33997;53.278;9.708;2024-02-16T00:39:57;2.60;;;1.38;;
48207;SDS011;33997;53.278;9.708;2024-02-16T00:42:22;0.93;;;0.73;;
48207;SDS011;33997;53.278;9.708;2024-02-16T00:44:48;1.80;;;1.00;;
48207;SDS011;33997;53.278;9.708;2024-02-16T00:47:15;1.92;;;1.20;;
48207;SDS011;33997;53.278;9.708;2024-02-16T00:49:41;1.20;;;0.75;;
48207;SDS011;33997;53.278;9.708;2024-02-16T00:52:07;1.90;;;1.17;;
48207;SDS011;33997;53.278;9.708;2024-02-16T00:54:33;2.47;;;0.90;;
48207;SDS011;33997;53.278;9.708;2024-02-16T00:56:58;1.00;;;0.80;;
48207;SDS011;33997;53.278;9.708;2024-02-16T00:59:27;1.10;;;0.88;;
48207;SDS011;33997;53.278;9.708;2024-02-16T01:01:56;1.10;;;0.80;;
48207;SDS011;33997;53.278;9.708;2024-02-16T01:04:21;1.83;;;1.00;;
48207;SDS011;33997;53.278;9.708;2024-02-16T01:06:48;2.35;;;0.90;;
48207;SDS011;33997;53.278;9.708;2024-02-16T01:09:13;2.72;;;1.10;;
48207;SDS011;33997;53.278;9.708;2024-02-16T01:11:41;3.15;;;1.45;;
48207;SDS011;33997;53.278;9.708;2024-02-16T01:14:07;2.42;;;1.10;;
48207;SDS011;33997;53.278;9.708;2024-02-16T01:16:33;3.25;;;1.52;;
48207;SDS011;33997;53.278;9.708;2024-02-16T01:19:00;2.40;;;0.85;;
48207;SDS011;33997;53.278;9.708;2024-02-16T01:21:26;2.33;;;1.10;;
48207;SDS011;33997;53.278;9.708;2024-02-16T01:23:51;2.88;;;1.00;;
48207;SDS011;33997;53.278;9.708;2024-02-16T01:26:17;2.03;;;1.00;;
48207;SDS011;33997;53.278;9.708;2024-02-16T01:28:42;2.72;;;1.33;;
48207;SDS011;33997;53.278;9.708;2024-02-16T01:31:08;2.15;;;1.25;;
48207;SDS011;33997;53.278;9.708;2024-02-16T01:33:34;1.50;;;0.90;;
48207;SDS011;33997;53.278;9.708;2024-02-16T01:36:00;2.33;;;1.23;;
48207;SDS011;33997;53.278;9.708;2024-02-16T01:38:27;2.60;;;1.30;;
48207;SDS011;33997;53.278;9.708;2024-02-16T01:40:53;1.50;;;1.10;;
48207;SDS011;33997;53.278;9.708;2024-02-16T01:43:19;1.85;;;1.05;;
48207;SDS011;33997;53.278;9.708;2024-02-16T01:45:47;1.77;;;1.20;;
48207;SDS011;33997;53.278;9.708;2024-02-16T01:48:13;1.92;;;1.08;;
48207;SDS011;33997;53.278;9.708;2024-02-16T01:50:42;3.33;;;1.13;;
48207;SDS011;33997;53.278;9.708;2024-02-16T01:53:08;2.90;;;1.50;;
48207;SDS011;33997;53.278;9.708;2024-02-16T01:55:35;2.15;;;1.13;;
48207;SDS011;33997;53.278;9.708;2024-02-16T01:58:00;1.98;;;1.30;;
48207;SDS011;33997;53.278;9.708;2024-02-16T02:00:26;3.72;;;1.60;;
48207;SDS011;33997;53.278;9.708;2024-02-16T02:02:51;1.73;;;1.08;;
48207;SDS011;33997;53.278;9.708;2024-02-16T02:05:17;4.75;;;1.50;;
48207;SDS011;33997;53.278;9.708;2024-02-16T02:07:42;1.30;;;0.93;;
48207;SDS011;33997;53.278;9.708;2024-02-16T02:10:08;1.88;;;1.20;;
48207;SDS011;33997;53.278;9.708;2024-02-16T02:12:34;1.25;;;0.90;;
48207;SDS011;33997;53.278;9.708;2024-02-16T02:15:00;1.60;;;1.30;;
48207;SDS011;33997;53.278;9.708;2024-02-16T02:17:25;2.00;;;1.15;;
48207;SDS011;33997;53.278;9.708;2024-02-16T02:19:51;6.32;;;1.40;;
48207;SDS011;33997;53.278;9.708;2024-02-16T02:22:19;1.95;;;1.10;;
48207;SDS011;33997;53.278;9.708;2024-02-16T02:24:45;1.77;;;1.02;;
48207;SDS011;33997;53.278;9.708;2024-02-16T02:27:12;1.95;;;1.10;;
48207;SDS011;33997;53.278;9.708;2024-02-16T02:29:38;5.82;;;1.45;;
48207;SDS011;33997;53.278;9.708;2024-02-16T02:32:04;1.58;;;1.00;;
48207;SDS011;33997;53.278;9.708;2024-02-16T02:34:30;2.13;;;1.02;;
48207;SDS011;33997;53.278;9.708;2024-02-16T02:36:55;2.88;;;1.10;;
48207;SDS011;33997;53.278;9.708;2024-02-16T02:39:21;1.52;;;1.10;;
48207;SDS011;33997;53.278;9.708;2024-02-16T02:41:46;2.50;;;1.10;;
48207;SDS011;33997;53.278;9.708;2024-02-16T02:44:12;1.95;;;1.02;;
48207;SDS011;33997;53.278;9.708;2024-02-16T02:46:38;1.25;;;0.93;;
48207;SDS011;33997;53.278;9.708;2024-02-16T02:49:03;1.35;;;0.82;;
48207;SDS011;33997;53.278;9.708;2024-02-16T02:51:29;1.25;;;0.85;;
48207;SDS011;33997;53.278;9.708;2024-02-16T02:53:55;2.42;;;1.30;;
48207;SDS011;33997;53.278;9.708;2024-02-16T02:56:20;1.10;;;0.90;;
48207;SDS011;33997;53.278;9.708;2024-02-16T02:58:46;1.73;;;1.20;;
48207;SDS011;33997;53.278;9.708;2024-02-16T03:01:12;3.55;;;1.02;;
48207;SDS011;33997;53.278;9.708;2024-02-16T03:03:38;2.17;;;1.10;;
48207;SDS011;33997;53.278;9.708;2024-02-16T03:06:04;1.60;;;0.85;;
48207;SDS011;33997;53.278;9.708;2024-02-16T03:08:31;2.67;;;0.93;;
48207;SDS011;33997;53.278;9.708;2024-02-16T03:10:56;1.88;;;0.95;;
48207;SDS011;33997;53.278;9.708;2024-02-16T03:13:25;2.13;;;1.08;;
48207;SDS011;33997;53.278;9.708;2024-02-16T03:15:50;1.48;;;0.80;;
48207;SDS011;33997;53.278;9.708;2024-02-16T03:18:17;1.60;;;1.00;;
48207;SDS011;33997;53.278;9.708;2024-02-16T03:20:43;2.20;;;1.00;;
48207;SDS011;33997;53.278;9.708;2024-02-16T03:23:11;2.00;;;0.82;;
48207;SDS011;33997;53.278;9.708;2024-02-16T03:25:36;2.55;;;0.80;;
48207;SDS011;33997;53.278;9.708;2024-02-16T03:28:01;1.70;;;0.60;;
48207;SDS011;33997;53.278;9.708;2024-02-16T03:30:27;2.63;;;1.05;;
48207;SDS011;33997;53.278;9.708;2024-02-16T03:32:52;0.73;;;0.70;;
48207;SDS011;33997;53.278;9.708;2024-02-16T03:35:18;2.65;;;0.98;;
48207;SDS011;33997;53.278;9.708;2024-02-16T03:37:44;1.55;;;0.90;;
48207;SDS011;33997;53.278;9.708;2024-02-16T03:40:10;2.13;;;0.80;;
48207;SDS011;33997;53.278;9.708;2024-02-16T03:42:37;1.42;;;1.02;;
48207;SDS011;33997;53.278;9.708;2024-02-16T03:45:04;1.20;;;0.70;;
48207;SDS011;33997;53.278;9.708;2024-02-16T03:47:29;2.22;;;0.82;;
48207;SDS011;33997;53.278;9.708;2024-02-16T03:49:55;1.83;;;0.90;;
48207;SDS011;33997;53.278;9.708;2024-02-16T03:52:20;1.55;;;0.80;;
48207;SDS011;33997;53.278;9.708;2024-02-16T03:54:46;1.10;;;0.80;;
48207;SDS011;33997;53.278;9.708;2024-02-16T03:57:13;2.05;;;1.08;;
48207;SDS011;33997;53.278;9.708;2024-02-16T03:59:41;1.10;;;0.90;;
48207;SDS011;33997;53.278;9.708;2024-02-16T04:02:10;1.42;;;0.90;;
48207;SDS011;33997;53.278;9.708;2024-02-16T04:04:36;1.30;;;0.77;;
48207;SDS011;33997;53.278;9.708;2024-02-16T04:07:01;1.02;;;0.70;;
48207;SDS011;33997;53.278;9.708;2024-02-16T04:09:27;2.65;;;0.98;;
48207;SDS011;33997;53.278;9.708;2024-02-16T04:11:53;1.75;;;0.90;;
48207;SDS011;33997;53.278;9.708;2024-02-16T04:14:18;1.13;;;0.73;;
48207;SDS011;33997;53.278;9.708;2024-02-16T04:16:44;1.27;;;0.73;;
48207;SDS011;33997;53.278;9.708;2024-02-16T04:19:09;1.52;;;0.90;;
48207;SDS011;33997;53.278;9.708;2024-02-16T04:21:35;1.10;;;0.80;;
48207;SDS011;33997;53.278;9.708;2024-02-16T04:24:01;1.13;;;0.75;;
48207;SDS011;33997;53.278;9.708;2024-02-16T04:26:26;0.77;;;0.73;;
48207;SDS011;33997;53.278;9.708;2024-02-16T04:28:51;1.63;;;1.00;;
48207;SDS011;33997;53.278;9.708;2024-02-16T04:31:17;0.80;;;0.55;;
48207;SDS011;33997;53.278;9.708;2024-02-16T04:33:42;2.38;;;1.02;;
48207;SDS011;33997;53.278;9.708;2024-02-16T04:36:08;1.88;;;0.73;;
48207;SDS011;33997;53.278;9.708;2024-02-16T04:38:34;1.23;;;0.55;;
48207;SDS011;33997;53.278;9.708;2024-02-16T04:40:59;1.05;;;0.70;;
48207;SDS011;33997;53.278;9.708;2024-02-16T04:43:24;1.40;;;1.00;;
48207;SDS011;33997;53.278;9.708;2024-02-16T04:45:50;1.92;;;0.70;;
48207;SDS011;33997;53.278;9.708;2024-02-16T04:48:16;1.83;;;0.82;;
48207;SDS011;33997;53.278;9.708;2024-02-16T04:50:41;1.40;;;0.90;;
48207;SDS011;33997;53.278;9.708;2024-02-16T04:53:07;1.88;;;0.95;;
48207;SDS011;33997;53.278;9.708;2024-02-16T04:55:32;0.77;;;0.55;;
48207;SDS011;33997;53.278;9.708;2024-02-16T04:57:58;3.30;;;0.90;;
48207;SDS011;33997;53.278;9.708;2024-02-16T05:00:24;0.95;;;0.70;;
48207;SDS011;33997;53.278;9.708;2024-02-16T05:02:50;1.83;;;0.95;;
48207;SDS011;33997;53.278;9.708;2024-02-16T05:05:16;2.58;;;1.17;;
48207;SDS011;33997;53.278;9.708;2024-02-16T05:07:42;2.28;;;1.08;;
48207;SDS011;33997;53.278;9.708;2024-02-16T05:10:08;2.05;;;1.02;;
48207;SDS011;33997;53.278;9.708;2024-02-16T05:12:34;1.02;;;0.60;;
48207;SDS011;33997;53.278;9.708;2024-02-16T05:14:59;4.43;;;0.85;;
48207;SDS011;33997;53.278;9.708;2024-02-16T05:17:25;1.20;;;0.70;;
48207;SDS011;33997;53.278;9.708;2024-02-16T05:19:51;3.92;;;0.88;;
48207;SDS011;33997;53.278;9.708;2024-02-16T05:22:17;2.08;;;1.00;;
48207;SDS011;33997;53.278;9.708;2024-02-16T05:24:43;1.10;;;0.70;;
48207;SDS011;33997;53.278;9.708;2024-02-16T05:27:09;2.00;;;1.00;;
48207;SDS011;33997;53.278;9.708;2024-02-16T05:29:35;1.23;;;0.77;;
48207;SDS011;33997;53.278;9.708;2024-02-16T05:32:01;3.35;;;0.65;;
48207;SDS011;33997;53.278;9.708;2024-02-16T05:34:26;1.60;;;0.63;;
48207;SDS011;33997;53.278;9.708;2024-02-16T05:36:57;0.77;;;0.60;;
48207;SDS011;33997;53.278;9.708;2024-02-16T05:39:22;2.42;;;0.75;;
48207;SDS011;33997;53.278;9.708;2024-02-16T05:41:52;1.23;;;0.93;;
48207;SDS011;33997;53.278;9.708;2024-02-16T05:44:18;1.08;;;0.52;;
48207;SDS011;33997;53.278;9.708;2024-02-16T05:46:44;0.77;;;0.60;;
48207;SDS011;33997;53.278;9.708;2024-02-16T05:49:10;0.75;;;0.47;;
48207;SDS011;33997;53.278;9.708;2024-02-16T05:51:36;2.22;;;0.80;;
48207;SDS011;33997;53.278;9.708;2024-02-16T05:54:02;3.47;;;0.77;;
48207;SDS011;33997;53.278;9.708;2024-02-16T05:56:28;1.13;;;0.80;;
48207;SDS011;33997;53.278;9.708;2024-02-16T05:58:54;1.45;;;0.80;;
48207;SDS011;33997;53.278;9.708;2024-02-16T06:01:19;1.92;;;1.00;;
48207;SDS011;33997;53.278;9.708;2024-02-16T06:03:45;1.23;;;0.80;;
48207;SDS011;33997;53.278;9.708;2024-02-16T06:06:10;0.63;;;0.60;;
48207;SDS011;33997;53.278;9.708;2024-02-16T06:08:36;1.17;;;0.82;;
48207;SDS011;33997;53.278;9.708;2024-02-16T06:11:01;1.33;;;0.60;;
48207;SDS011;33997;53.278;9.708;2024-02-16T06:13:27;0.88;;;0.60;;
48207;SDS011;33997;53.278;9.708;2024-02-16T06:15:54;0.77;;;0.60;;
48207;SDS011;33997;53.278;9.708;2024-02-16T06:18:20;2.85;;;0.88;;
48207;SDS011;33997;53.278;9.708;2024-02-16T06:20:45;1.25;;;0.70;;
48207;SDS011;33997;53.278;9.708;2024-02-16T06:23:11;1.05;;;0.60;;
48207;SDS011;33997;53.278;9.708;2024-02-16T06:25:37;1.25;;;0.70;;
48207;SDS011;33997;53.278;9.708;2024-02-16T06:28:02;1.48;;;0.93;;
48207;SDS011;33997;53.278;9.708;2024-02-16T06:30:29;1.65;;;0.77;;
48207;SDS011;33997;53.278;9.708;2024-02-16T06:32:55;1.00;;;0.60;;
48207;SDS011;33997;53.278;9.708;2024-02-16T06:35:20;2.00;;;0.60;;
48207;SDS011;33997;53.278;9.708;2024-02-16T06:37:46;0.68;;;0.52;;
48207;SDS011;33997;53.278;9.708;2024-02-16T06:40:11;0.77;;;0.65;;
48207;SDS011;33997;53.278;9.708;2024-02-16T06:42:37;0.85;;;0.50;;
48207;SDS011;33997;53.278;9.708;2024-02-16T06:45:03;2.22;;;1.13;;
48207;SDS011;33997;53.278;9.708;2024-02-16T06:47:30;2.35;;;0.77;;
48207;SDS011;33997;53.278;9.708;2024-02-16T06:49:56;0.70;;;0.57;;
48207;SDS011;33997;53.278;9.708;2024-02-16T06:52:21;1.58;;;0.98;;
48207;SDS011;33997;53.278;9.708;2024-02-16T06:54:47;1.60;;;0.70;;
48207;SDS011;33997;53.278;9.708;2024-02-16T06:57:14;2.25;;;0.93;;
48207;SDS011;33997;53.278;9.708;2024-02-16T06:59:39;1.58;;;0.90;;
48207;SDS011;33997;53.278;9.708;2024-02-16T07:02:05;1.05;;;0.70;;
48207;SDS011;33997;53.278;9.708;2024-02-16T07:04:32;1.55;;;0.70;;
48207;SDS011;33997;53.278;9.708;2024-02-16T07:06:58;1.05;;;0.77;;
48207;SDS011;33997;53.278;9.708;2024-02-16T07:09:23;1.90;;;0.70;;
48207;SDS011;33997;53.278;9.708;2024-02-16T07:11:48;1.17;;;0.75;;
48207;SDS011;33997;53.278;9.708;2024-02-16T07:14:15;0.95;;;0.70;;
48207;SDS011;33997;53.278;9.708;2024-02-16T07:16:41;1.55;;;0.70;;
48207;SDS011;33997;53.278;9.708;2024-02-16T07:19:06;1.20;;;0.60;;
48207;SDS011;33997;53.278;9.708;2024-02-16T07:21:32;1.08;;;0.68;;
48207;SDS011;33997;53.278;9.708;2024-02-16T07:23:58;0.70;;;0.52;;
48207;SDS011;33997;53.278;9.708;2024-02-16T07:26:24;1.30;;;0.80;;
48207;SDS011;33997;53.278;9.708;2024-02-16T07:28:50;0.98;;;0.57;;
48207;SDS011;33997;53.278;9.708;2024-02-16T07:31:15;1.30;;;0.73;;
48207;SDS011;33997;53.278;9.708;2024-02-16T07:33:41;1.05;;;0.65;;
48207;SDS011;33997;53.278;9.708;2024-02-16T07:36:07;1.63;;;0.77;;
48207;SDS011;33997;53.278;9.708;2024-02-16T07:38:33;1.00;;;0.60;;
48207;SDS011;33997;53.278;9.708;2024-02-16T07:40:58;1.02;;;0.52;;
48207;SDS011;33997;53.278;9.708;2024-02-16T07:43:24;0.88;;;0.63;;
48207;SDS011;33997;53.278;9.708;2024-02-16T07:45:52;1.10;;;0.52;;
48207;SDS011;33997;53.278;9.708;2024-02-16T07:48:18;0.43;;;0.38;;
48207;SDS011;33997;53.278;9.708;2024-02-16T07:50:48;0.95;;;0.70;;
48207;SDS011;33997;53.278;9.708;2024-02-16T07:53:15;1.35;;;0.73;;
48207;SDS011;33997;53.278;9.708;2024-02-16T07:55:41;2.05;;;0.47;;
48207;SDS011;33997;53.278;9.708;2024-02-16T07:58:06;1.92;;;0.43;;
48207;SDS011;33997;53.278;9.708;2024-02-16T08:00:32;0.60;;;0.60;;
48207;SDS011;33997;53.278;9.708;2024-02-16T08:02:58;0.43;;;0.30;;
48207;SDS011;33997;53.278;9.708;2024-02-16T08:05:24;1.42;;;0.50;;
48207;SDS011;33997;53.278;9.708;2024-02-16T08:07:50;0.45;;;0.40;;
48207;SDS011;33997;53.278;9.708;2024-02-16T08:10:18;0.82;;;0.50;;
48207;SDS011;33997;53.278;9.708;2024-02-16T08:12:45;0.50;;;0.50;;
48207;SDS011;33997;53.278;9.708;2024-02-16T08:15:11;1.30;;;0.63;;
48207;SDS011;33997;53.278;9.708;2024-02-16T08:17:37;1.10;;;0.70;;
48207;SDS011;33997;53.278;9.708;2024-02-16T08:20:06;1.05;;;0.50;;
48207;SDS011;33997;53.278;9.708;2024-02-16T08:22:32;1.30;;;0.35;;
48207;SDS011;33997;53.278;9.708;2024-02-16T08:24:59;0.63;;;0.43;;
48207;SDS011;33997;53.278;9.708;2024-02-16T08:27:24;2.17;;;0.60;;
48207;SDS011;33997;53.278;9.708;2024-02-16T08:29:50;1.67;;;0.73;;
48207;SDS011;33997;53.278;9.708;2024-02-16T08:32:16;1.23;;;0.60;;
48207;SDS011;33997;53.278;9.708;2024-02-16T08:34:43;0.43;;;0.43;;
48207;SDS011;33997;53.278;9.708;2024-02-16T08:37:08;2.67;;;0.60;;
48207;SDS011;33997;53.278;9.708;2024-02-16T08:39:37;0.80;;;0.50;;
48207;SDS011;33997;53.278;9.708;2024-02-16T08:42:03;1.15;;;0.63;;
48207;SDS011;33997;53.278;9.708;2024-02-16T08:44:29;0.90;;;0.50;;
48207;SDS011;33997;53.278;9.708;2024-02-16T08:46:54;1.15;;;0.60;;
48207;SDS011;33997;53.278;9.708;2024-02-16T08:49:20;2.63;;;0.90;;
48207;SDS011;33997;53.278;9.708;2024-02-16T08:51:46;0.85;;;0.60;;
48207;SDS011;33997;53.278;9.708;2024-02-16T08:54:12;0.63;;;0.50;;
48207;SDS011;33997;53.278;9.708;2024-02-16T08:56:38;1.00;;;0.60;;
48207;SDS011;33997;53.278;9.708;2024-02-16T08:59:04;0.60;;;0.40;;
48207;SDS011;33997;53.278;9.708;2024-02-16T09:01:32;2.20;;;0.98;;
48207;SDS011;33997;53.278;9.708;2024-02-16T09:03:58;2.90;;;0.55;;
48207;SDS011;33997;53.278;9.708;2024-02-16T09:06:25;5.35;;;0.60;;
48207;SDS011;33997;53.278;9.708;2024-02-16T09:08:50;0.70;;;0.45;;
48207;SDS011;33997;53.278;9.708;2024-02-16T09:11:16;0.73;;;0.40;;
48207;SDS011;33997;53.278;9.708;2024-02-16T09:13:42;1.52;;;0.60;;
48207;SDS011;33997;53.278;9.708;2024-02-16T09:16:08;0.55;;;0.47;;
48207;SDS011;33997;53.278;9.708;2024-02-16T09:18:33;2.33;;;0.70;;
48207;SDS011;33997;53.278;9.708;2024-02-16T09:20:59;1.88;;;0.60;;
48207;SDS011;33997;53.278;9.708;2024-02-16T09:23:24;0.75;;;0.45;;
48207;SDS011;33997;53.278;9.708;2024-02-16T09:25:51;0.68;;;0.50;;
48207;SDS011;33997;53.278;9.708;2024-02-16T09:28:16;1.77;;;0.70;;
48207;SDS011;33997;53.278;9.708;2024-02-16T09:30:45;3.50;;;0.52;;
48207;SDS011;33997;53.278;9.708;2024-02-16T09:33:11;1.45;;;0.52;;
48207;SDS011;33997;53.278;9.708;2024-02-16T09:35:36;0.45;;;0.40;;
48207;SDS011;33997;53.278;9.708;2024-02-16T09:38:02;1.92;;;0.60;;
48207;SDS011;33997;53.278;9.708;2024-02-16T09:40:28;1.05;;;0.73;;
48207;SDS011;33997;53.278;9.708;2024-02-16T09:42:53;2.10;;;0.85;;
48207;SDS011;33997;53.278;9.708;2024-02-16T09:45:19;0.50;;;0.30;;
48207;SDS011;33997;53.278;9.708;2024-02-16T09:47:44;0.85;;;0.52;;
48207;SDS011;33997;53.278;9.708;2024-02-16T09:50:11;0.73;;;0.50;;
48207;SDS011;33997;53.278;9.708;2024-02-16T09:52:37;1.67;;;0.80;;
48207;SDS011;33997;53.278;9.708;2024-02-16T09:55:04;1.10;;;0.60;;
48207;SDS011;33997;53.278;9.708;2024-02-16T09:57:35;0.68;;;0.52;;
48207;SDS011;33997;53.278;9.708;2024-02-16T10:00:01;1.33;;;0.50;;
48207;SDS011;33997;53.278;9.708;2024-02-16T10:02:28;1.77;;;0.70;;
48207;SDS011;33997;53.278;9.708;2024-02-16T10:05:16;2.92;;;0.90;;
48207;SDS011;33997;53.278;9.708;2024-02-16T10:07:44;1.73;;;0.70;;
48207;SDS011;33997;53.278;9.708;2024-02-16T10:10:22;0.95;;;0.70;;
48207;SDS011;33997;53.278;9.708;2024-02-16T10:12:49;2.40;;;0.80;;
48207;SDS011;33997;53.278;9.708;2024-02-16T10:15:25;0.25;;;0.25;;
48207;SDS011;33997;53.278;9.708;2024-02-16T10:17:57;1.40;;;0.60;;
48207;SDS011;33997;53.278;9.708;2024-02-16T10:20:26;0.90;;;0.50;;
48207;SDS011;33997;53.278;9.708;2024-02-16T10:23:04;0.60;;;0.60;;
48207;SDS011;33997;53.278;9.708;2024-02-16T10:25:31;3.67;;;0.60;;
48207;SDS011;33997;53.278;9.708;2024-02-16T10:27:57;0.55;;;0.50;;
48207;SDS011;33997;53.278;9.708;2024-02-16T10:30:23;1.10;;;0.57;;
48207;SDS011;33997;53.278;9.708;2024-02-16T10:32:55;1.55;;;0.80;;
48207;SDS011;33997;53.278;9.708;2024-02-16T10:35:21;0.88;;;0.38;;
48207;SDS011;33997;53.278;9.708;2024-02-16T10:37:49;0.90;;;0.63;;
48207;SDS011;33997;53.278;9.708;2024-02-16T10:40:15;1.83;;;0.70;;
48207;SDS011;33997;53.278;9.708;2024-02-16T10:42:45;1.45;;;0.70;;
48207;SDS011;33997;53.278;9.708;2024-02-16T10:45:11;1.20;;;0.60;;
48207;SDS011;33997;53.278;9.708;2024-02-16T10:47:38;0.85;;;0.60;;
48207;SDS011;33997;53.278;9.708;2024-02-16T10:50:04;1.33;;;0.57;;
48207;SDS011;33997;53.278;9.708;2024-02-16T10:52:31;1.00;;;0.70;;
48207;SDS011;33997;53.278;9.708;2024-02-16T10:54:57;2.65;;;0.80;;
48207;SDS011;33997;53.278;9.708;2024-02-16T10:57:24;1.90;;;0.88;;
48207;SDS011;33997;53.278;9.708;2024-02-16T10:59:52;2.13;;;0.70;;
48207;SDS011;33997;53.278;9.708;2024-02-16T11:02:19;1.08;;;0.70;;
48207;SDS011;33997;53.278;9.708;2024-02-16T11:04:45;0.65;;;0.65;;
48207;SDS011;33997;53.278;9.708;2024-02-16T11:07:15;2.03;;;0.80;;
48207;SDS011;33997;53.278;9.708;2024-02-16T11:09:41;1.08;;;0.55;;
48207;SDS011;33997;53.278;9.708;2024-02-16T11:12:08;0.77;;;0.55;;
48207;SDS011;33997;53.278;9.708;2024-02-16T11:14:37;1.30;;;0.60;;
48207;SDS011;33997;53.278;9.708;2024-02-16T11:17:09;0.80;;;0.60;;
48207;SDS011;33997;53.278;9.708;2024-02-16T11:19:36;1.15;;;0.45;;
48207;SDS011;33997;53.278;9.708;2024-02-16T11:22:05;2.47;;;0.80;;
48207;SDS011;33997;53.278;9.708;2024-02-16T11:24:36;1.60;;;0.50;;
48207;SDS011;33997;53.278;9.708;2024-02-16T11:27:05;1.98;;;0.75;;
48207;SDS011;33997;53.278;9.708;2024-02-16T11:29:32;3.42;;;1.17;;
48207;SDS011;33997;53.278;9.708;2024-02-16T11:32:02;0.95;;;0.50;;
48207;SDS011;33997;53.278;9.708;2024-02-16T11:34:28;1.27;;;0.75;;
48207;SDS011;33997;53.278;9.708;2024-02-16T11:36:55;2.08;;;0.93;;
48207;SDS011;33997;53.278;9.708;2024-02-16T11:39:21;0.98;;;0.40;;
48207;SDS011;33997;53.278;9.708;2024-02-16T11:41:48;1.63;;;0.60;;
48207;SDS011;33997;53.278;9.708;2024-02-16T11:44:31;1.02;;;0.57;;
48207;SDS011;33997;53.278;9.708;2024-02-16T11:46:57;1.90;;;0.93;;
48207;SDS011;33997;53.278;9.708;2024-02-16T11:49:23;1.75;;;0.77;;
48207;SDS011;33997;53.278;9.708;2024-02-16T11:51:49;0.90;;;0.70;;
48207;SDS011;33997;53.278;9.708;2024-02-16T11:54:15;0.60;;;0.55;;
48207;SDS011;33997;53.278;9.708;2024-02-16T11:56:44;0.82;;;0.65;;
48207;SDS011;33997;53.278;9.708;2024-02-16T11:59:17;1.17;;;0.60;;
48207;SDS011;33997;53.278;9.708;2024-02-16T12:01:56;3.22;;;0.98;;
48207;SDS011;33997;53.278;9.708;2024-02-16T12:04:23;1.35;;;0.70;;
48207;SDS011;33997;53.278;9.708;2024-02-16T12:06:56;3.45;;;0.98;;
48207;SDS011;33997;53.278;9.708;2024-02-16T12:09:23;2.57;;;1.00;;
48207;SDS011;33997;53.278;9.708;2024-02-16T12:11:49;2.22;;;0.93;;
48207;SDS011;33997;53.278;9.708;2024-02-16T12:14:16;2.00;;;1.17;;
48207;SDS011;33997;53.278;9.708;2024-02-16T12:16:42;3.42;;;0.90;;
48207;SDS011;33997;53.278;9.708;2024-02-16T12:19:12;0.90;;;0.60;;
48207;SDS011;33997;53.278;9.708;2024-02-16T12:21:38;1.95;;;0.70;;
48207;SDS011;33997;53.278;9.708;2024-02-16T12:24:03;1.13;;;0.90;;
48207;SDS011;33997;53.278;9.708;2024-02-16T12:26:29;3.65;;;1.27;;
48207;SDS011;33997;53.278;9.708;2024-02-16T12:28:54;1.60;;;0.80;;
48207;SDS011;33997;53.278;9.708;2024-02-16T12:31:20;3.53;;;1.17;;
48207;SDS011;33997;53.278;9.708;2024-02-16T12:33:46;1.15;;;0.88;;
48207;SDS011;33997;53.278;9.708;2024-02-16T12:36:12;1.92;;;0.88;;
48207;SDS011;33997;53.278;9.708;2024-02-16T12:38:37;1.80;;;1.00;;
48207;SDS011;33997;53.278;9.708;2024-02-16T12:41:03;2.45;;;1.10;;
48207;SDS011;33997;53.278;9.708;2024-02-16T12:43:29;2.25;;;1.10;;
48207;SDS011;33997;53.278;9.708;2024-02-16T12:45:54;1.95;;;0.93;;
48207;SDS011;33997;53.278;9.708;2024-02-16T12:48:20;3.10;;;1.10;;
48207;SDS011;33997;53.278;9.708;2024-02-16T12:50:45;0.98;;;0.70;;
48207;SDS011;33997;53.278;9.708;2024-02-16T12:53:12;1.35;;;0.80;;
48207;SDS011;33997;53.278;9.708;2024-02-16T12:55:38;2.45;;;1.05;;
48207;SDS011;33997;53.278;9.708;2024-02-16T12:58:03;1.85;;;1.10;;
48207;SDS011;33997;53.278;9.708;2024-02-16T13:00:29;1.05;;;0.70;;
48207;SDS011;33997;53.278;9.708;2024-02-16T13:02:54;2.55;;;1.10;;
48207;SDS011;33997;53.278;9.708;2024-02-16T13:05:20;2.50;;;1.15;;
48207;SDS011;33997;53.278;9.708;2024-02-16T13:07:46;3.97;;;1.25;;
48207;SDS011;33997;53.278;9.708;2024-02-16T13:10:11;1.48;;;0.90;;
48207;SDS011;33997;53.278;9.708;2024-02-16T13:12:37;1.55;;;0.93;;
48207;SDS011;33997;53.278;9.708;2024-02-16T13:15:06;2.47;;;1.08;;
48207;SDS011;33997;53.278;9.708;2024-02-16T13:17:31;3.88;;;1.30;;
48207;SDS011;33997;53.278;9.708;2024-02-16T13:19:58;4.15;;;1.15;;
48207;SDS011;33997;53.278;9.708;2024-02-16T13:22:31;1.77;;;1.13;;
48207;SDS011;33997;53.278;9.708;2024-02-16T13:25:03;3.90;;;1.23;;
48207;SDS011;33997;53.278;9.708;2024-02-16T13:27:30;2.42;;;1.33;;
48207;SDS011;33997;53.278;9.708;2024-02-16T13:29:56;2.13;;;1.00;;
48207;SDS011;33997;53.278;9.708;2024-02-16T13:32:21;2.33;;;1.30;;
48207;SDS011;33997;53.278;9.708;2024-02-16T13:34:47;4.07;;;1.67;;
48207;SDS011;33997;53.278;9.708;2024-02-16T13:37:13;2.58;;;1.30;;
48207;SDS011;33997;53.278;9.708;2024-02-16T13:39:38;2.88;;;1.23;;
48207;SDS011;33997;53.278;9.708;2024-02-16T13:42:04;2.10;;;1.00;;
48207;SDS011;33997;53.278;9.708;2024-02-16T13:44:29;3.45;;;1.42;;
48207;SDS011;33997;53.278;9.708;2024-02-16T13:46:55;2.65;;;1.13;;
48207;SDS011;33997;53.278;9.708;2024-02-16T13:49:22;3.95;;;1.17;;
48207;SDS011;33997;53.278;9.708;2024-02-16T13:51:47;3.63;;;1.42;;
48207;SDS011;33997;53.278;9.708;2024-02-16T13:54:13;3.80;;;1.30;;
48207;SDS011;33997;53.278;9.708;2024-02-16T13:56:38;2.10;;;1.20;;
48207;SDS011;33997;53.278;9.708;2024-02-16T13:59:04;2.22;;;1.10;;
48207;SDS011;33997;53.278;9.708;2024-02-16T14:01:32;3.22;;;1.20;;
48207;SDS011;33997;53.278;9.708;2024-02-16T14:03:59;2.25;;;1.27;;
48207;SDS011;33997;53.278;9.708;2024-02-16T14:06:24;3.55;;;1.40;;
48207;SDS011;33997;53.278;9.708;2024-02-16T14:08:49;2.70;;;1.23;;
48207;SDS011;33997;53.278;9.708;2024-02-16T14:11:17;3.70;;;1.05;;
48207;SDS011;33997;53.278;9.708;2024-02-16T14:13:47;2.15;;;1.38;;
48207;SDS011;33997;53.278;9.708;2024-02-16T14:16:13;3.03;;;1.40;;
48207;SDS011;33997;53.278;9.708;2024-02-16T14:18:38;4.18;;;1.70;;
48207;SDS011;33997;53.278;9.708;2024-02-16T14:21:04;3.47;;;1.60;;
48207;SDS011;33997;53.278;9.708;2024-02-16T14:23:29;2.67;;;1.33;;
48207;SDS011;33997;53.278;9.708;2024-02-16T14:25:55;3.80;;;1.75;;
48207;SDS011;33997;53.278;9.708;2024-02-16T14:28:21;2.50;;;1.20;;
48207;SDS011;33997;53.278;9.708;2024-02-16T14:30:47;2.70;;;1.40;;
48207;SDS011;33997;53.278;9.708;2024-02-16T14:33:12;2.72;;;1.27;;
48207;SDS011;33997;53.278;9.708;2024-02-16T14:35:41;3.30;;;1.35;;
48207;SDS011;33997;53.278;9.708;2024-02-16T14:38:07;1.52;;;1.13;;
48207;SDS011;33997;53.278;9.708;2024-02-16T14:40:33;2.25;;;1.50;;
48207;SDS011;33997;53.278;9.708;2024-02-16T14:42:59;2.05;;;1.27;;